sensor_id;sensor_type;location;lat;lon;timestamp;P1;durP1;ratioP1;P2;durP2;ratioP2
71979;SDS011;59853;48.190;11.860;2022-08-19T00:01:22;10.52;;;7.53;;
71979;SDS011;59853;48.190;11.860;2022-08-19T00:03:49;8.80;;;5.70;;
71979;SDS011;59853;48.190;11.860;2022-08-19T00:06:14;8.45;;;5.30;;
71979;SDS011;59853;48.190;11.860;2022-08-19T00:08:40;8.77;;;5.07;;
71979;SDS011;59853;48.190;11.860;2022-08-19T00:11:05;7.63;;;5.07;;
71979;SDS011;59853;48.190;11.860;2022-08-19T00:13:32;7.28;;;4.63;;
71979;SDS011;59853;48.190;11.860;2022-08-19T00:15:58;5.78;;;4.22;;
71979;SDS011;59853;48.190;11.860;2022-08-19T00:18:24;6.55;;;4.47;;
71979;SDS011;59853;48.190;11.860;2022-08-19T00:20:50;6.28;;;4.60;;
71979;SDS011;59853;48.190;11.860;2022-08-19T00:23:15;7.47;;;5.00;;
71979;SDS011;59853;48.190;11.860;2022-08-19T00:25:41;6.72;;;4.07;;
71979;SDS011;59853;48.190;11.860;2022-08-19T00:28:06;6.65;;;4.30;;
71979;SDS011;59853;48.190;11.860;2022-08-19T00:30:32;6.40;;;4.10;;
71979;SDS011;59853;48.190;11.860;2022-08-19T00:32:57;5.78;;;4.13;;
71979;SDS011;59853;48.190;11.860;2022-08-19T00:35:23;8.82;;;4.20;;
71979;SDS011;59853;48.190;11.860;2022-08-19T00:37:49;6.55;;;4.50;;
71979;SDS011;59853;48.190;11.860;2022-08-19T00:40:15;10.20;;;4.65;;
71979;SDS011;59853;48.190;11.860;2022-08-19T00:42:41;7.60;;;4.47;;
71979;SDS011;59853;48.190;11.860;2022-08-19T00:45:13;6.88;;;4.20;;
71979;SDS011;59853;48.190;11.860;2022-08-19T00:47:42;6.45;;;4.65;;
71979;SDS011;59853;48.190;11.860;2022-08-19T00:50:09;6.40;;;4.30;;
71979;SDS011;59853;48.190;11.860;2022-08-19T00:52:37;9.88;;;4.28;;
71979;SDS011;59853;48.190;11.860;2022-08-19T00:55:05;8.20;;;4.82;;
71979;SDS011;59853;48.190;11.860;2022-08-19T00:57:36;8.07;;;4.15;;
71979;SDS011;59853;48.190;11.860;2022-08-19T01:00:07;6.72;;;4.43;;
71979;SDS011;59853;48.190;11.860;2022-08-19T01:02:37;7.30;;;4.47;;
71979;SDS011;59853;48.190;11.860;2022-08-19T01:05:05;6.68;;;4.40;;
71979;SDS011;59853;48.190;11.860;2022-08-19T01:07:32;7.27;;;4.63;;
71979;SDS011;59853;48.190;11.860;2022-08-19T01:09:59;8.35;;;5.30;;
71979;SDS011;59853;48.190;11.860;2022-08-19T01:12:24;7.63;;;4.80;;
71979;SDS011;59853;48.190;11.860;2022-08-19T01:14:50;9.70;;;5.75;;
71979;SDS011;59853;48.190;11.860;2022-08-19T01:17:16;8.70;;;4.90;;
71979;SDS011;59853;48.190;11.860;2022-08-19T01:19:43;7.10;;;4.90;;
71979;SDS011;59853;48.190;11.860;2022-08-19T01:22:12;7.55;;;5.47;;
71979;SDS011;59853;48.190;11.860;2022-08-19T01:24:42;8.43;;;5.30;;
71979;SDS011;59853;48.190;11.860;2022-08-19T01:27:07;7.78;;;5.13;;
71979;SDS011;59853;48.190;11.860;2022-08-19T01:29:34;8.15;;;5.63;;
71979;SDS011;59853;48.190;11.860;2022-08-19T01:32:03;8.65;;;5.28;;
71979;SDS011;59853;48.190;11.860;2022-08-19T01:34:28;8.00;;;5.50;;
71979;SDS011;59853;48.190;11.860;2022-08-19T01:36:54;8.90;;;5.72;;
71979;SDS011;59853;48.190;11.860;2022-08-19T01:39:20;11.15;;;6.15;;
71979;SDS011;59853;48.190;11.860;2022-08-19T01:41:47;12.18;;;6.55;;
71979;SDS011;59853;48.190;11.860;2022-08-19T01:44:13;9.80;;;6.13;;
71979;SDS011;59853;48.190;11.860;2022-08-19T01:46:39;9.13;;;5.90;;
71979;SDS011;59853;48.190;11.860;2022-08-19T01:49:05;8.65;;;6.00;;
71979;SDS011;59853;48.190;11.860;2022-08-19T01:51:32;8.48;;;5.38;;
71979;SDS011;59853;48.190;11.860;2022-08-19T01:53:58;8.52;;;5.63;;
71979;SDS011;59853;48.190;11.860;2022-08-19T01:56:24;10.00;;;5.72;;
71979;SDS011;59853;48.190;11.860;2022-08-19T01:58:51;9.10;;;5.70;;
71979;SDS011;59853;48.190;11.860;2022-08-19T02:01:20;9.68;;;5.95;;
71979;SDS011;59853;48.190;11.860;2022-08-19T02:03:45;9.32;;;5.97;;
71979;SDS011;59853;48.190;11.860;2022-08-19T02:06:11;11.18;;;5.65;;
71979;SDS011;59853;48.190;11.860;2022-08-19T02:08:37;9.35;;;5.70;;
71979;SDS011;59853;48.190;11.860;2022-08-19T02:11:03;9.40;;;5.68;;
71979;SDS011;59853;48.190;11.860;2022-08-19T02:13:30;7.63;;;5.38;;
71979;SDS011;59853;48.190;11.860;2022-08-19T02:15:55;9.43;;;5.63;;
71979;SDS011;59853;48.190;11.860;2022-08-19T02:18:21;9.45;;;6.20;;
71979;SDS011;59853;48.190;11.860;2022-08-19T02:20:46;8.32;;;5.47;;
71979;SDS011;59853;48.190;11.860;2022-08-19T02:23:13;10.43;;;6.40;;
71979;SDS011;59853;48.190;11.860;2022-08-19T02:25:40;9.65;;;5.95;;
71979;SDS011;59853;48.190;11.860;2022-08-19T02:28:06;8.52;;;5.90;;
71979;SDS011;59853;48.190;11.860;2022-08-19T02:30:32;8.23;;;5.85;;
71979;SDS011;59853;48.190;11.860;2022-08-19T02:32:57;9.23;;;6.20;;
71979;SDS011;59853;48.190;11.860;2022-08-19T02:35:23;9.05;;;5.40;;
71979;SDS011;59853;48.190;11.860;2022-08-19T02:37:49;8.23;;;5.32;;
71979;SDS011;59853;48.190;11.860;2022-08-19T02:40:33;9.13;;;6.00;;
71979;SDS011;59853;48.190;11.860;2022-08-19T02:43:05;9.55;;;6.35;;
71979;SDS011;59853;48.190;11.860;2022-08-19T02:45:36;11.10;;;6.03;;
71979;SDS011;59853;48.190;11.860;2022-08-19T02:48:03;8.45;;;5.93;;
71979;SDS011;59853;48.190;11.860;2022-08-19T02:50:30;9.95;;;5.78;;
71979;SDS011;59853;48.190;11.860;2022-08-19T02:52:56;11.32;;;5.82;;
71979;SDS011;59853;48.190;11.860;2022-08-19T02:55:22;9.07;;;5.38;;
71979;SDS011;59853;48.190;11.860;2022-08-19T02:57:47;14.15;;;6.22;;
71979;SDS011;59853;48.190;11.860;2022-08-19T03:00:13;11.30;;;6.45;;
71979;SDS011;59853;48.190;11.860;2022-08-19T03:02:39;9.00;;;5.95;;
71979;SDS011;59853;48.190;11.860;2022-08-19T03:05:05;8.65;;;5.95;;
71979;SDS011;59853;48.190;11.860;2022-08-19T03:07:31;8.10;;;5.43;;
71979;SDS011;59853;48.190;11.860;2022-08-19T03:09:57;9.07;;;5.65;;
71979;SDS011;59853;48.190;11.860;2022-08-19T03:12:22;9.02;;;5.57;;
71979;SDS011;59853;48.190;11.860;2022-08-19T03:14:47;9.70;;;5.93;;
71979;SDS011;59853;48.190;11.860;2022-08-19T03:17:13;9.50;;;5.70;;
71979;SDS011;59853;48.190;11.860;2022-08-19T03:19:38;11.00;;;6.63;;
71979;SDS011;59853;48.190;11.860;2022-08-19T03:22:04;9.48;;;6.63;;
71979;SDS011;59853;48.190;11.860;2022-08-19T03:24:30;9.90;;;6.28;;
71979;SDS011;59853;48.190;11.860;2022-08-19T03:26:56;14.02;;;6.78;;
71979;SDS011;59853;48.190;11.860;2022-08-19T03:29:23;10.52;;;6.65;;
71979;SDS011;59853;48.190;11.860;2022-08-19T03:31:53;9.20;;;5.82;;
71979;SDS011;59853;48.190;11.860;2022-08-19T03:34:21;10.30;;;6.40;;
71979;SDS011;59853;48.190;11.860;2022-08-19T03:36:51;10.48;;;6.05;;
71979;SDS011;59853;48.190;11.860;2022-08-19T03:39:16;10.38;;;5.60;;
71979;SDS011;59853;48.190;11.860;2022-08-19T03:41:43;9.65;;;5.93;;
71979;SDS011;59853;48.190;11.860;2022-08-19T03:44:09;8.80;;;5.93;;
71979;SDS011;59853;48.190;11.860;2022-08-19T03:46:35;9.73;;;6.13;;
71979;SDS011;59853;48.190;11.860;2022-08-19T03:49:01;9.27;;;5.90;;
71979;SDS011;59853;48.190;11.860;2022-08-19T03:51:35;9.75;;;6.32;;
71979;SDS011;59853;48.190;11.860;2022-08-19T03:54:03;9.88;;;6.47;;
71979;SDS011;59853;48.190;11.860;2022-08-19T03:56:30;8.82;;;5.97;;
71979;SDS011;59853;48.190;11.860;2022-08-19T03:58:56;9.68;;;6.10;;
71979;SDS011;59853;48.190;11.860;2022-08-19T04:01:23;10.95;;;7.30;;
71979;SDS011;59853;48.190;11.860;2022-08-19T04:03:51;10.88;;;7.47;;
71979;SDS011;59853;48.190;11.860;2022-08-19T04:09:09;12.18;;;6.63;;
71979;SDS011;59853;48.190;11.860;2022-08-19T04:11:43;14.65;;;7.65;;
71979;SDS011;59853;48.190;11.860;2022-08-19T04:14:15;10.35;;;6.57;;
71979;SDS011;59853;48.190;11.860;2022-08-19T04:16:42;11.15;;;6.43;;
71979;SDS011;59853;48.190;11.860;2022-08-19T04:19:09;10.15;;;6.50;;
71979;SDS011;59853;48.190;11.860;2022-08-19T04:21:34;9.82;;;6.63;;
71979;SDS011;59853;48.190;11.860;2022-08-19T04:24:00;9.95;;;6.60;;
71979;SDS011;59853;48.190;11.860;2022-08-19T04:26:27;8.18;;;5.20;;
71979;SDS011;59853;48.190;11.860;2022-08-19T04:28:54;9.48;;;6.38;;
71979;SDS011;59853;48.190;11.860;2022-08-19T04:31:24;10.70;;;6.82;;
71979;SDS011;59853;48.190;11.860;2022-08-19T04:33:52;8.85;;;5.75;;
71979;SDS011;59853;48.190;11.860;2022-08-19T04:36:20;10.63;;;6.28;;
71979;SDS011;59853;48.190;11.860;2022-08-19T04:38:47;9.85;;;6.07;;
71979;SDS011;59853;48.190;11.860;2022-08-19T04:41:13;9.15;;;5.60;;
71979;SDS011;59853;48.190;11.860;2022-08-19T04:43:57;9.18;;;5.78;;
71979;SDS011;59853;48.190;11.860;2022-08-19T04:46:23;10.15;;;6.53;;
71979;SDS011;59853;48.190;11.860;2022-08-19T04:48:48;9.25;;;5.90;;
71979;SDS011;59853;48.190;11.860;2022-08-19T04:51:14;9.23;;;5.97;;
71979;SDS011;59853;48.190;11.860;2022-08-19T04:53:40;10.57;;;6.28;;
71979;SDS011;59853;48.190;11.860;2022-08-19T04:56:10;9.95;;;6.13;;
71979;SDS011;59853;48.190;11.860;2022-08-19T04:58:38;9.70;;;5.65;;
71979;SDS011;59853;48.190;11.860;2022-08-19T05:01:05;9.65;;;5.95;;
71979;SDS011;59853;48.190;11.860;2022-08-19T05:03:31;9.35;;;5.75;;
71979;SDS011;59853;48.190;11.860;2022-08-19T05:05:58;9.13;;;5.85;;
71979;SDS011;59853;48.190;11.860;2022-08-19T05:08:29;9.25;;;5.97;;
71979;SDS011;59853;48.190;11.860;2022-08-19T05:10:55;10.68;;;6.43;;
71979;SDS011;59853;48.190;11.860;2022-08-19T05:13:22;13.75;;;6.20;;
71979;SDS011;59853;48.190;11.860;2022-08-19T05:15:55;10.45;;;5.80;;
71979;SDS011;59853;48.190;11.860;2022-08-19T05:18:22;8.60;;;5.57;;
71979;SDS011;59853;48.190;11.860;2022-08-19T05:21:07;10.75;;;6.20;;
71979;SDS011;59853;48.190;11.860;2022-08-19T05:23:52;8.90;;;5.82;;
71979;SDS011;59853;48.190;11.860;2022-08-19T05:26:17;9.05;;;5.95;;
71979;SDS011;59853;48.190;11.860;2022-08-19T05:28:42;9.95;;;5.85;;
71979;SDS011;59853;48.190;11.860;2022-08-19T05:31:08;10.07;;;5.95;;
71979;SDS011;59853;48.190;11.860;2022-08-19T05:33:33;8.15;;;5.57;;
71979;SDS011;59853;48.190;11.860;2022-08-19T05:35:59;9.25;;;5.25;;
71979;SDS011;59853;48.190;11.860;2022-08-19T05:38:26;10.18;;;6.00;;
71979;SDS011;59853;48.190;11.860;2022-08-19T05:40:52;9.30;;;5.15;;
71979;SDS011;59853;48.190;11.860;2022-08-19T05:43:17;8.80;;;5.20;;
71979;SDS011;59853;48.190;11.860;2022-08-19T05:45:43;8.93;;;5.60;;
71979;SDS011;59853;48.190;11.860;2022-08-19T05:48:09;7.70;;;5.10;;
71979;SDS011;59853;48.190;11.860;2022-08-19T05:50:36;8.80;;;5.50;;
71979;SDS011;59853;48.190;11.860;2022-08-19T05:53:03;7.65;;;4.65;;
71979;SDS011;59853;48.190;11.860;2022-08-19T05:55:29;6.97;;;4.63;;
71979;SDS011;59853;48.190;11.860;2022-08-19T05:57:54;8.73;;;4.90;;
71979;SDS011;59853;48.190;11.860;2022-08-19T06:00:19;7.18;;;4.35;;
71979;SDS011;59853;48.190;11.860;2022-08-19T06:02:45;8.55;;;5.30;;
71979;SDS011;59853;48.190;11.860;2022-08-19T06:05:10;8.32;;;4.95;;
71979;SDS011;59853;48.190;11.860;2022-08-19T06:07:36;9.23;;;5.10;;
71979;SDS011;59853;48.190;11.860;2022-08-19T06:10:04;8.27;;;5.18;;
71979;SDS011;59853;48.190;11.860;2022-08-19T06:12:32;7.57;;;5.25;;
71979;SDS011;59853;48.190;11.860;2022-08-19T06:15:00;8.98;;;5.00;;
71979;SDS011;59853;48.190;11.860;2022-08-19T06:17:37;9.48;;;5.43;;
71979;SDS011;59853;48.190;11.860;2022-08-19T06:20:03;8.48;;;5.18;;
71979;SDS011;59853;48.190;11.860;2022-08-19T06:22:38;7.82;;;5.15;;
71979;SDS011;59853;48.190;11.860;2022-08-19T06:25:09;7.15;;;5.10;;
71979;SDS011;59853;48.190;11.860;2022-08-19T06:27:35;7.80;;;5.43;;
71979;SDS011;59853;48.190;11.860;2022-08-19T06:30:01;7.05;;;5.30;;
71979;SDS011;59853;48.190;11.860;2022-08-19T06:32:30;9.32;;;5.43;;
71979;SDS011;59853;48.190;11.860;2022-08-19T06:34:55;7.07;;;4.93;;
71979;SDS011;59853;48.190;11.860;2022-08-19T06:37:21;7.93;;;5.22;;
71979;SDS011;59853;48.190;11.860;2022-08-19T06:39:47;9.88;;;6.35;;
71979;SDS011;59853;48.190;11.860;2022-08-19T06:42:13;9.23;;;5.43;;
71979;SDS011;59853;48.190;11.860;2022-08-19T06:44:41;9.00;;;5.78;;
71979;SDS011;59853;48.190;11.860;2022-08-19T06:47:08;9.23;;;6.18;;
71979;SDS011;59853;48.190;11.860;2022-08-19T06:49:34;9.55;;;5.80;;
71979;SDS011;59853;48.190;11.860;2022-08-19T06:52:00;9.60;;;6.03;;
71979;SDS011;59853;48.190;11.860;2022-08-19T06:54:27;9.68;;;6.18;;
71979;SDS011;59853;48.190;11.860;2022-08-19T06:56:54;10.77;;;6.53;;
71979;SDS011;59853;48.190;11.860;2022-08-19T06:59:21;10.80;;;6.85;;
71979;SDS011;59853;48.190;11.860;2022-08-19T07:01:49;10.40;;;6.40;;
71979;SDS011;59853;48.190;11.860;2022-08-19T07:04:19;11.57;;;7.03;;
71979;SDS011;59853;48.190;11.860;2022-08-19T07:06:46;11.65;;;7.85;;
71979;SDS011;59853;48.190;11.860;2022-08-19T07:09:12;10.82;;;6.75;;
71979;SDS011;59853;48.190;11.860;2022-08-19T07:11:43;12.13;;;7.03;;
71979;SDS011;59853;48.190;11.860;2022-08-19T07:14:09;11.18;;;7.13;;
71979;SDS011;59853;48.190;11.860;2022-08-19T07:16:34;10.82;;;6.88;;
71979;SDS011;59853;48.190;11.860;2022-08-19T07:19:00;11.65;;;7.25;;
71979;SDS011;59853;48.190;11.860;2022-08-19T07:21:26;13.35;;;8.20;;
71979;SDS011;59853;48.190;11.860;2022-08-19T07:23:53;11.70;;;7.03;;
71979;SDS011;59853;48.190;11.860;2022-08-19T07:26:29;10.65;;;6.60;;
71979;SDS011;59853;48.190;11.860;2022-08-19T07:28:57;10.57;;;6.68;;
71979;SDS011;59853;48.190;11.860;2022-08-19T07:31:24;12.68;;;7.72;;
71979;SDS011;59853;48.190;11.860;2022-08-19T07:33:51;10.27;;;7.03;;
71979;SDS011;59853;48.190;11.860;2022-08-19T07:36:19;11.55;;;7.28;;
71979;SDS011;59853;48.190;11.860;2022-08-19T07:38:46;12.32;;;7.88;;
71979;SDS011;59853;48.190;11.860;2022-08-19T07:41:14;11.55;;;7.13;;
71979;SDS011;59853;48.190;11.860;2022-08-19T07:43:44;12.60;;;8.15;;
71979;SDS011;59853;48.190;11.860;2022-08-19T07:46:11;12.65;;;8.23;;
71979;SDS011;59853;48.190;11.860;2022-08-19T07:48:38;12.68;;;8.25;;
71979;SDS011;59853;48.190;11.860;2022-08-19T07:51:05;13.23;;;8.13;;
71979;SDS011;59853;48.190;11.860;2022-08-19T07:53:33;13.57;;;8.88;;
71979;SDS011;59853;48.190;11.860;2022-08-19T07:55:59;12.80;;;8.48;;
71979;SDS011;59853;48.190;11.860;2022-08-19T07:58:28;14.70;;;9.47;;
71979;SDS011;59853;48.190;11.860;2022-08-19T08:00:54;13.55;;;8.63;;
71979;SDS011;59853;48.190;11.860;2022-08-19T08:03:20;15.63;;;8.65;;
71979;SDS011;59853;48.190;11.860;2022-08-19T08:06:07;15.68;;;9.68;;
71979;SDS011;59853;48.190;11.860;2022-08-19T08:08:51;14.32;;;9.25;;
71979;SDS011;59853;48.190;11.860;2022-08-19T08:11:35;16.00;;;10.13;;
71979;SDS011;59853;48.190;11.860;2022-08-19T08:14:00;16.00;;;10.35;;
71979;SDS011;59853;48.190;11.860;2022-08-19T08:16:26;17.98;;;10.50;;
71979;SDS011;59853;48.190;11.860;2022-08-19T08:18:54;20.80;;;11.52;;
71979;SDS011;59853;48.190;11.860;2022-08-19T08:21:20;17.13;;;10.80;;
71979;SDS011;59853;48.190;11.860;2022-08-19T08:23:45;18.35;;;11.23;;
71979;SDS011;59853;48.190;11.860;2022-08-19T08:26:11;19.73;;;12.02;;
71979;SDS011;59853;48.190;11.860;2022-08-19T08:28:38;19.10;;;11.48;;
71979;SDS011;59853;48.190;11.860;2022-08-19T08:31:03;18.20;;;11.13;;
71979;SDS011;59853;48.190;11.860;2022-08-19T08:33:29;18.73;;;11.57;;
71979;SDS011;59853;48.190;11.860;2022-08-19T08:35:55;22.00;;;11.80;;
71979;SDS011;59853;48.190;11.860;2022-08-19T08:38:21;19.65;;;11.90;;
71979;SDS011;59853;48.190;11.860;2022-08-19T08:40:48;23.67;;;12.52;;
71979;SDS011;59853;48.190;11.860;2022-08-19T08:46:27;19.63;;;11.70;;
71979;SDS011;59853;48.190;11.860;2022-08-19T08:51:24;19.20;;;12.45;;
71979;SDS011;59853;48.190;11.860;2022-08-19T08:53:54;20.70;;;12.32;;
71979;SDS011;59853;48.190;11.860;2022-08-19T08:56:21;18.52;;;11.75;;
71979;SDS011;59853;48.190;11.860;2022-08-19T08:58:56;21.38;;;12.15;;
71979;SDS011;59853;48.190;11.860;2022-08-19T09:01:23;19.65;;;11.88;;
71979;SDS011;59853;48.190;11.860;2022-08-19T09:03:49;18.73;;;11.85;;
71979;SDS011;59853;48.190;11.860;2022-08-19T09:06:19;21.80;;;13.80;;
71979;SDS011;59853;48.190;11.860;2022-08-19T09:16:39;20.08;;;12.27;;
71979;SDS011;59853;48.190;11.860;2022-08-19T09:19:05;19.63;;;11.43;;
71979;SDS011;59853;48.190;11.860;2022-08-19T09:21:32;18.05;;;11.50;;
71979;SDS011;59853;48.190;11.860;2022-08-19T09:23:57;19.55;;;12.23;;
71979;SDS011;59853;48.190;11.860;2022-08-19T09:26:24;20.15;;;12.43;;
71979;SDS011;59853;48.190;11.860;2022-08-19T09:28:50;20.00;;;12.75;;
71979;SDS011;59853;48.190;11.860;2022-08-19T09:31:18;21.70;;;13.25;;
71979;SDS011;59853;48.190;11.860;2022-08-19T09:33:45;20.88;;;12.95;;
71979;SDS011;59853;48.190;11.860;2022-08-19T09:36:12;20.95;;;13.25;;
71979;SDS011;59853;48.190;11.860;2022-08-19T09:38:39;20.15;;;12.50;;
71979;SDS011;59853;48.190;11.860;2022-08-19T09:41:10;20.13;;;12.07;;
71979;SDS011;59853;48.190;11.860;2022-08-19T09:43:38;16.92;;;11.00;;
71979;SDS011;59853;48.190;11.860;2022-08-19T09:46:05;18.17;;;11.68;;
71979;SDS011;59853;48.190;11.860;2022-08-19T09:48:33;19.20;;;12.18;;
71979;SDS011;59853;48.190;11.860;2022-08-19T09:51:09;21.83;;;12.27;;
71979;SDS011;59853;48.190;11.860;2022-08-19T09:53:40;18.10;;;11.63;;
71979;SDS011;59853;48.190;11.860;2022-08-19T09:56:06;16.90;;;10.48;;
71979;SDS011;59853;48.190;11.860;2022-08-19T09:58:32;18.80;;;11.30;;
71979;SDS011;59853;48.190;11.860;2022-08-19T10:00:58;19.85;;;12.23;;
71979;SDS011;59853;48.190;11.860;2022-08-19T10:03:24;14.70;;;10.27;;
71979;SDS011;59853;48.190;11.860;2022-08-19T10:05:50;18.98;;;11.35;;
71979;SDS011;59853;48.190;11.860;2022-08-19T10:08:17;16.42;;;10.75;;
71979;SDS011;59853;48.190;11.860;2022-08-19T10:10:46;16.40;;;10.40;;
71979;SDS011;59853;48.190;11.860;2022-08-19T10:13:12;14.82;;;9.88;;
71979;SDS011;59853;48.190;11.860;2022-08-19T10:15:40;14.32;;;9.05;;
71979;SDS011;59853;48.190;11.860;2022-08-19T10:18:06;15.63;;;10.30;;
71979;SDS011;59853;48.190;11.860;2022-08-19T10:20:33;16.33;;;10.10;;
71979;SDS011;59853;48.190;11.860;2022-08-19T10:23:00;17.02;;;10.00;;
71979;SDS011;59853;48.190;11.860;2022-08-19T10:25:26;13.75;;;9.00;;
71979;SDS011;59853;48.190;11.860;2022-08-19T10:27:52;14.70;;;9.20;;
71979;SDS011;59853;48.190;11.860;2022-08-19T10:30:17;16.33;;;9.38;;
71979;SDS011;59853;48.190;11.860;2022-08-19T10:32:43;15.82;;;8.85;;
71979;SDS011;59853;48.190;11.860;2022-08-19T10:35:10;14.55;;;9.32;;
71979;SDS011;59853;48.190;11.860;2022-08-19T10:37:37;14.55;;;9.68;;
71979;SDS011;59853;48.190;11.860;2022-08-19T10:40:04;14.35;;;9.73;;
71979;SDS011;59853;48.190;11.860;2022-08-19T10:42:32;14.18;;;9.43;;
71979;SDS011;59853;48.190;11.860;2022-08-19T10:44:57;12.55;;;8.15;;
71979;SDS011;59853;48.190;11.860;2022-08-19T10:47:23;13.82;;;8.95;;
71979;SDS011;59853;48.190;11.860;2022-08-19T10:49:48;12.38;;;8.75;;
71979;SDS011;59853;48.190;11.860;2022-08-19T10:52:32;13.40;;;8.95;;
71979;SDS011;59853;48.190;11.860;2022-08-19T10:54:58;14.60;;;10.00;;
71979;SDS011;59853;48.190;11.860;2022-08-19T10:57:43;13.55;;;9.27;;
71979;SDS011;59853;48.190;11.860;2022-08-19T11:00:08;13.15;;;9.10;;
71979;SDS011;59853;48.190;11.860;2022-08-19T11:02:34;13.02;;;8.30;;
71979;SDS011;59853;48.190;11.860;2022-08-19T11:05:00;11.75;;;7.85;;
71979;SDS011;59853;48.190;11.860;2022-08-19T11:07:26;12.18;;;8.15;;
71979;SDS011;59853;48.190;11.860;2022-08-19T11:09:51;11.85;;;7.78;;
71979;SDS011;59853;48.190;11.860;2022-08-19T11:12:17;10.00;;;7.25;;
71979;SDS011;59853;48.190;11.860;2022-08-19T11:14:44;8.93;;;7.00;;
71979;SDS011;59853;48.190;11.860;2022-08-19T11:17:09;8.10;;;6.20;;
71979;SDS011;59853;48.190;11.860;2022-08-19T11:19:38;8.55;;;6.40;;
71979;SDS011;59853;48.190;11.860;2022-08-19T11:22:04;10.68;;;7.40;;
71979;SDS011;59853;48.190;11.860;2022-08-19T11:24:35;11.73;;;7.80;;
71979;SDS011;59853;48.190;11.860;2022-08-19T11:27:02;10.18;;;7.47;;
71979;SDS011;59853;48.190;11.860;2022-08-19T11:29:30;11.88;;;7.75;;
71979;SDS011;59853;48.190;11.860;2022-08-19T11:31:56;9.35;;;6.30;;
71979;SDS011;59853;48.190;11.860;2022-08-19T11:34:22;9.95;;;7.13;;
71979;SDS011;59853;48.190;11.860;2022-08-19T11:36:50;10.13;;;6.85;;
71979;SDS011;59853;48.190;11.860;2022-08-19T11:39:17;7.82;;;6.18;;
71979;SDS011;59853;48.190;11.860;2022-08-19T11:41:44;9.10;;;6.13;;
71979;SDS011;59853;48.190;11.860;2022-08-19T11:44:09;10.52;;;7.20;;
71979;SDS011;59853;48.190;11.860;2022-08-19T11:46:35;10.98;;;7.22;;
71979;SDS011;59853;48.190;11.860;2022-08-19T11:49:02;12.88;;;8.70;;
71979;SDS011;59853;48.190;11.860;2022-08-19T11:51:29;13.43;;;8.43;;
71979;SDS011;59853;48.190;11.860;2022-08-19T11:53:55;13.30;;;8.63;;
71979;SDS011;59853;48.190;11.860;2022-08-19T11:56:22;11.57;;;7.95;;
71979;SDS011;59853;48.190;11.860;2022-08-19T11:58:49;12.70;;;8.30;;
71979;SDS011;59853;48.190;11.860;2022-08-19T12:01:15;12.43;;;7.97;;
71979;SDS011;59853;48.190;11.860;2022-08-19T12:03:42;11.52;;;7.78;;
71979;SDS011;59853;48.190;11.860;2022-08-19T12:06:11;11.35;;;7.97;;
71979;SDS011;59853;48.190;11.860;2022-08-19T12:08:39;10.75;;;7.05;;
71979;SDS011;59853;48.190;11.860;2022-08-19T12:11:05;8.88;;;6.10;;
71979;SDS011;59853;48.190;11.860;2022-08-19T12:13:33;9.68;;;6.13;;
71979;SDS011;59853;48.190;11.860;2022-08-19T12:15:59;14.27;;;8.13;;
71979;SDS011;59853;48.190;11.860;2022-08-19T12:18:25;11.80;;;8.30;;
71979;SDS011;59853;48.190;11.860;2022-08-19T12:20:51;12.90;;;8.82;;
71979;SDS011;59853;48.190;11.860;2022-08-19T12:23:19;11.82;;;7.97;;
71979;SDS011;59853;48.190;11.860;2022-08-19T12:25:45;12.93;;;8.85;;
71979;SDS011;59853;48.190;11.860;2022-08-19T12:28:15;13.00;;;8.73;;
71979;SDS011;59853;48.190;11.860;2022-08-19T12:30:41;11.52;;;7.72;;
71979;SDS011;59853;48.190;11.860;2022-08-19T12:33:06;8.73;;;6.15;;
71979;SDS011;59853;48.190;11.860;2022-08-19T12:35:32;8.13;;;4.93;;
71979;SDS011;59853;48.190;11.860;2022-08-19T12:37:58;6.57;;;4.60;;
71979;SDS011;59853;48.190;11.860;2022-08-19T12:40:24;4.80;;;3.13;;
71979;SDS011;59853;48.190;11.860;2022-08-19T12:42:50;4.90;;;3.30;;
71979;SDS011;59853;48.190;11.860;2022-08-19T12:45:16;3.33;;;2.60;;
71979;SDS011;59853;48.190;11.860;2022-08-19T12:47:41;3.75;;;2.40;;
71979;SDS011;59853;48.190;11.860;2022-08-19T12:50:07;3.20;;;2.22;;
71979;SDS011;59853;48.190;11.860;2022-08-19T12:52:33;3.38;;;2.10;;
71979;SDS011;59853;48.190;11.860;2022-08-19T12:55:02;2.95;;;2.10;;
71979;SDS011;59853;48.190;11.860;2022-08-19T12:57:28;3.67;;;2.00;;
71979;SDS011;59853;48.190;11.860;2022-08-19T12:59:58;4.85;;;2.88;;
71979;SDS011;59853;48.190;11.860;2022-08-19T13:02:25;5.05;;;3.22;;
71979;SDS011;59853;48.190;11.860;2022-08-19T13:04:51;3.35;;;2.03;;
71979;SDS011;59853;48.190;11.860;2022-08-19T13:07:17;3.75;;;2.50;;
71979;SDS011;59853;48.190;11.860;2022-08-19T13:09:42;3.10;;;2.08;;
71979;SDS011;59853;48.190;11.860;2022-08-19T13:12:08;3.53;;;2.20;;
71979;SDS011;59853;48.190;11.860;2022-08-19T13:14:38;3.40;;;2.10;;
71979;SDS011;59853;48.190;11.860;2022-08-19T13:17:05;2.83;;;1.80;;
71979;SDS011;59853;48.190;11.860;2022-08-19T13:19:31;3.80;;;1.90;;
71979;SDS011;59853;48.190;11.860;2022-08-19T13:21:56;3.85;;;1.98;;
71979;SDS011;59853;48.190;11.860;2022-08-19T13:24:22;4.10;;;1.90;;
71979;SDS011;59853;48.190;11.860;2022-08-19T13:26:48;3.05;;;1.60;;
71979;SDS011;59853;48.190;11.860;2022-08-19T13:29:13;2.45;;;1.40;;
71979;SDS011;59853;48.190;11.860;2022-08-19T13:31:57;2.47;;;1.40;;
71979;SDS011;59853;48.190;11.860;2022-08-19T13:34:41;3.30;;;1.50;;
71979;SDS011;59853;48.190;11.860;2022-08-19T13:37:07;2.80;;;1.50;;
71979;SDS011;59853;48.190;11.860;2022-08-19T13:39:33;2.83;;;1.30;;
71979;SDS011;59853;48.190;11.860;2022-08-19T13:41:59;2.47;;;1.23;;
71979;SDS011;59853;48.190;11.860;2022-08-19T13:44:25;2.45;;;1.02;;
71979;SDS011;59853;48.190;11.860;2022-08-19T13:46:54;1.80;;;1.20;;
71979;SDS011;59853;48.190;11.860;2022-08-19T13:49:20;3.17;;;1.45;;
71979;SDS011;59853;48.190;11.860;2022-08-19T13:51:47;2.55;;;1.30;;
71979;SDS011;59853;48.190;11.860;2022-08-19T13:54:13;2.53;;;1.40;;
71979;SDS011;59853;48.190;11.860;2022-08-19T13:56:42;2.08;;;1.27;;
71979;SDS011;59853;48.190;11.860;2022-08-19T13:59:08;1.77;;;0.90;;
71979;SDS011;59853;48.190;11.860;2022-08-19T14:01:34;2.25;;;0.95;;
71979;SDS011;59853;48.190;11.860;2022-08-19T14:03:59;2.15;;;1.10;;
71979;SDS011;59853;48.190;11.860;2022-08-19T14:06:26;2.85;;;1.25;;
71979;SDS011;59853;48.190;11.860;2022-08-19T14:08:51;2.25;;;1.20;;
71979;SDS011;59853;48.190;11.860;2022-08-19T14:11:17;1.80;;;1.10;;
71979;SDS011;59853;48.190;11.860;2022-08-19T14:13:43;3.25;;;2.15;;
71979;SDS011;59853;48.190;11.860;2022-08-19T14:16:09;3.50;;;2.05;;
71979;SDS011;59853;48.190;11.860;2022-08-19T14:18:35;2.47;;;1.77;;
71979;SDS011;59853;48.190;11.860;2022-08-19T14:21:01;2.38;;;1.33;;
71979;SDS011;59853;48.190;11.860;2022-08-19T14:23:27;2.72;;;1.30;;
71979;SDS011;59853;48.190;11.860;2022-08-19T14:25:53;3.53;;;1.52;;
71979;SDS011;59853;48.190;11.860;2022-08-19T14:28:20;3.25;;;1.88;;
71979;SDS011;59853;48.190;11.860;2022-08-19T14:30:46;2.75;;;1.92;;
71979;SDS011;59853;48.190;11.860;2022-08-19T14:33:11;3.67;;;2.03;;
71979;SDS011;59853;48.190;11.860;2022-08-19T14:35:36;2.60;;;1.70;;
71979;SDS011;59853;48.190;11.860;2022-08-19T14:38:03;2.75;;;1.85;;
71979;SDS011;59853;48.190;11.860;2022-08-19T14:40:30;3.20;;;2.10;;
71979;SDS011;59853;48.190;11.860;2022-08-19T14:42:56;3.15;;;2.40;;